Terminal Aerodrome Forecast
Issued by NWS

Home | Current Version | Previous Version | Text Only | Print | Product List | Glossary On
Versions: 1 2 3 4 5 6 7 8 9 10 11 12 13
177
FTUS42 KGSP 220520
TAFGMU
TAF
KGMU 220520Z 2206/2306 VRB03KT P6SM SCT250
     FM221000 04004KT P6SM SCT250
     FM221700 09006KT P6SM SCT050 BKN250
     FM222000 10006KT P6SM BKN050
     FM230300 08006KT P6SM OVC020 PROB30 2304/2306 4SM -SHRA OVC008=

USA.gov is the U.S. government's official web portal to all federal, state and local government web resources and services.